Latest Weather Observations for Hughenden

IDQ60801

Issued at 11:02 pm EST Tuesday 21 April 2015 (issued every 30 minutes, with the page automatically refreshed every 10 minutes)

About weather observations | Map of weather stations | Latest weather observations for QLD | Other Formats
Station Details ID: 030022 Name: HUGHENDEN AIRPORT Lat: -20.82 Lon: 144.23 Height: 316.4 m
Data from the previous 72 hours. | See also: Recent months at Hughenden
Date/Time
EST
Temp
°C
App
Temp
°C
Dew
Point
Rel
Hum
%
Delta-T
°C
Wind Press
QNH
hPa
Press
MSL
hPa
Rain
since 9 am
mm
Dir
 
Spd
km/h
Gust
km/h
Spd
kts
Gust
kts
21/11:00pm 11.3 8.9 -2.8 37 5.5 CALM 0 0 0 0 1018.5 1016.8 0.0
21/10:30pm 12.1 9.6 -3.7 33 6.1 CALM 0 0 0 0 1018.6 1016.9 0.0
21/10:00pm 12.5 8.7 -4.1 31 6.3 ESE 7 9 4 5 1018.5 1016.8 0.0
21/09:30pm 13.9 9.7 -3.8 29 6.9 SSE 9 9 5 5 1018.6 1016.9 0.0
21/09:00pm 15.2 11.5 -3.2 28 7.4 SE 7 9 4 5 1018.6 1016.9 0.0
21/08:30pm 16.5 12.3 -3.6 25 8.1 SSE 9 11 5 6 1018.2 1016.5 0.0
21/08:00pm 17.6 13.9 -3.2 24 8.5 SSE 7 9 4 5 1018.0 1016.2 0.0
21/07:30pm 18.3 14.2 -3.2 23 8.9 SSE 9 13 5 7 1017.5 1015.7 0.0
21/07:00pm 19.4 14.6 -2.8 22 9.4 S 13 15 7 8 1017.1 1015.3 0.0
21/06:30pm 20.8 16.0 -2.3 21 10.0 S 13 19 7 10 1016.8 1015.0 0.0
21/06:00pm 22.4 16.8 -3.1 18 11.0 S 17 24 9 13 1016.4 1014.7 0.0
21/05:30pm 23.5 17.4 -2.2 18 11.4 S 20 28 11 15 1016.0 1014.3 0.0
21/05:00pm 24.6 18.7 -2.0 17 11.9 SSW 19 28 10 15 1016.0 1014.3 0.0
21/04:30pm 24.8 19.3 0.3 20 11.5 S 19 24 10 13 1015.9 1014.2 0.0
21/04:00pm 25.7 20.5 0.4 19 12.0 SSE 17 26 9 14 1015.7 1014.0 0.0
21/03:30pm 25.7 20.9 0.4 19 12.0 SSE 15 28 8 15 1015.7 1014.0 0.0
21/03:00pm 26.3 21.0 1.6 20 12.0 SE 19 28 10 15 1015.9 1014.2 0.0
21/02:30pm 25.4 20.8 1.5 21 11.5 SSE 15 24 8 13 1016.2 1014.5 0.0
21/02:00pm 25.4 20.3 0.8 20 11.7 SSE 17 26 9 14 1016.8 1015.0 0.0
21/01:30pm 25.0 20.3 3.0 24 10.9 SE 17 26 9 14 1017.2 1015.4 0.0
21/01:00pm 24.6 20.8 3.8 26 10.4 SE 13 28 7 15 1017.6 1015.8 0.0
21/12:30pm 23.4 19.2 3.9 28 9.7 SSE 15 26 8 14 1018.2 1016.5 0.0
21/12:00pm 22.7 18.1 5.6 33 8.7 ESE 19 28 10 15 1018.8 1017.1 0.0
21/11:30am 22.3 17.6 5.3 33 8.6 SE 19 28 10 15 1019.4 1017.7 0.0
21/11:00am 21.2 16.4 5.5 36 7.9 ESE 20 32 11 17 1019.9 1018.2 0.0
21/10:30am 20.4 14.8 5.6 38 7.4 SE 24 32 13 17 1020.5 1018.7 0.0
21/10:00am 19.0 13.5 6.1 43 6.5 ESE 24 33 13 18 1020.6 1018.8 0.0
21/09:30am 18.4 13.1 6.9 47 5.9 SE 24 33 13 18 1020.9 1019.1 0.0
21/09:00am 17.8 13.3 6.0 46 5.9 SE 19 30 10 16 1020.8 1019.0 1.4
21/08:30am 18.0 13.1 6.8 48 5.7 SE 22 30 12 16 1020.6 1018.8 1.4
21/08:00am 16.5 12.2 7.7 56 4.5 SE 20 28 11 15 1020.5 1018.7 1.4
21/07:30am 16.6 12.2 10.5 67 3.3 SE 24 35 13 19 1020.1 1018.3 1.4
21/07:00am 16.4 12.8 12.0 75 2.4 SSE 22 30 12 16 1019.6 1017.9 1.4
21/06:30am 16.7 13.7 12.5 76 2.4 SSE 20 30 11 16 1019.2 1017.5 1.4
21/06:00am 16.9 13.5 12.6 76 2.4 SSE 22 32 12 17 1019.0 1017.3 1.4
21/05:30am 17.2 13.0 12.5 74 2.6 SE 26 35 14 19 1018.7 1017.0 1.4
21/05:00am 17.6 13.6 12.9 74 2.7 SE 26 33 14 18 1018.4 1016.7 1.4
21/04:30am 17.6 13.8 13.5 77 2.4 SSE 26 35 14 19 1018.4 1016.7 1.4
21/04:00am 18.3 15.7 13.8 75 2.6 SSE 20 30 11 16 1018.3 1016.6 1.4
21/03:30am 18.2 16.1 13.5 74 2.7 SSE 17 24 9 13 1018.3 1016.6 1.4
21/03:00am 18.3 15.8 13.4 73 2.8 SSE 19 26 10 14 1018.4 1016.7 1.4
21/02:30am 18.7 16.6 13.6 72 2.9 SSE 17 22 9 12 1018.5 1016.8 1.4
21/02:00am 18.9 17.2 13.7 72 3.0 SE 15 20 8 11 1018.7 1017.0 1.4
21/01:30am 18.7 17.3 14.4 76 2.5 SE 15 20 8 11 1018.9 1017.2 1.4
21/01:00am 18.0 17.8 14.7 81 1.9 SSE 9 13 5 7 1019.0 1017.3 1.4
21/12:30am 17.8 17.8 14.3 80 2.0 SE 7 9 4 5 1019.3 1017.6 1.4
 
Date/Time
EST
Temp
°C
App
Temp
°C
Dew
Point
Rel
Hum
%
Delta-T
°C
Wind Press
QNH
hPa
Press
MSL
hPa
Rain
since 9 am
mm
Dir
 
Spd
km/h
Gust
km/h
Spd
kts
Gust
kts
20/11:30pm 18.4 17.4 14.5 78 2.3 SE 13 15 7 8 1019.5 1017.8 1.4
20/11:00pm 18.5 17.8 14.4 77 2.4 SSE 11 15 6 8 1019.4 1017.7 1.4
20/10:30pm 19.0 18.8 14.7 76 2.5 SE 9 13 5 7 1019.6 1017.9 1.4
20/10:00pm 19.2 18.6 14.5 74 2.8 SE 11 15 6 8 1019.7 1018.0 1.4
20/09:30pm 19.6 18.2 14.6 73 3.0 SSE 15 20 8 11 1019.6 1017.9 1.4
20/09:00pm 20.1 18.9 15.1 73 3.0 SSE 15 19 8 10 1019.5 1017.8 1.4
20/08:30pm 20.1 18.9 15.1 73 3.0 SSE 15 24 8 13 1018.9 1017.2 1.4
20/08:00pm 20.2 18.7 15.2 73 3.0 SSE 17 22 9 12 1018.6 1016.9 1.4
20/07:30pm 20.2 18.1 15.2 73 3.0 S 20 30 11 16 1018.5 1016.8 1.4
20/07:00pm 20.6 19.1 15.4 72 3.1 S 17 20 9 11 1018.3 1016.6 1.4
20/06:30pm 20.6 19.2 15.6 73 3.0 S 17 22 9 12 1018.0 1016.2 1.4
20/06:00pm 20.7 19.3 15.5 72 3.1 S 17 22 9 12 1018.1 1016.3 1.4
20/05:30pm 21.3 19.5 15.4 69 3.6 SSW 19 24 10 13 1018.1 1016.3 1.4
20/05:00pm 22.2 21.3 14.8 63 4.4 SE 13 17 7 9 1017.9 1016.1 1.4
20/04:30pm 22.0 20.0 14.9 64 4.3 SE 19 24 10 13 1017.6 1015.8 1.4
20/04:00pm 22.0 19.9 14.6 63 4.4 SE 19 28 10 15 1017.7 1015.9 1.4
20/03:30pm 22.0 20.0 14.9 64 4.3 ESE 19 24 10 13 1017.8 1016.0 1.4
20/03:00pm 21.3 20.1 16.0 72 3.2 SE 17 24 9 13 1018.1 1016.3 1.4
20/02:30pm 21.3 19.3 15.6 70 3.4 SE 20 26 11 14 1018.0 1016.2 1.4
20/02:00pm 22.1 20.3 15.5 66 4.0 SSE 19 22 10 12 1018.2 1016.5 1.4
20/01:30pm 22.7 20.5 14.8 61 4.7 SSE 20 28 11 15 1018.5 1016.8 1.4
20/01:00pm 22.8 20.3 15.1 62 4.6 SSE 22 30 12 16 1018.6 1016.9 1.4
20/12:30pm 22.8 19.5 15.1 62 4.6 SE 26 35 14 19 1018.8 1017.1 1.4
20/12:00pm 23.1 20.0 15.7 63 4.5 SE 26 33 14 18 1019.1 1017.4 1.0
20/11:30am 22.2 18.5 15.1 64 4.3 SSE 28 35 15 19 1019.8 1018.1 1.0
20/11:00am 22.3 19.1 15.2 64 4.3 SSE 26 33 14 18 1020.1 1018.3 1.0
20/10:30am 21.7 18.5 15.3 67 3.9 SSE 26 35 14 19 1020.4 1018.6 0.6
20/10:00am 22.0 20.0 15.4 66 4.0 S 20 28 11 15 1020.7 1018.9 0.6
20/09:30am 22.2 19.3 15.1 64 4.3 SSE 24 32 13 17 1020.7 1018.9 0.2
20/09:00am 22.1 19.1 14.7 63 4.4 SSE 24 35 13 19 1020.1 1018.3 0.4
20/08:30am 21.9 19.7 14.8 64 4.2 SSE 20 28 11 15 1019.9 1018.2 0.2
20/08:00am 21.1 17.8 14.0 64 4.2 SSE 24 32 13 17 1019.7 1018.0 0.2
20/07:30am 21.3 18.7 13.7 62 4.5 SSE 20 28 11 15 1019.4 1017.7 0.2
20/07:00am 21.5 18.7 13.2 59 4.8 S 20 26 11 14 1019.1 1017.4 0.0
20/06:30am 21.6 19.4 13.2 59 4.9 SSE 17 24 9 13 1018.7 1017.0 0.0
20/06:00am 21.5 18.9 13.2 59 4.8 S 19 26 10 14 1018.5 1016.8 0.0
20/05:30am 21.9 19.9 12.7 56 5.3 S 15 20 8 11 1018.2 1016.5 0.0
20/05:00am 21.9 20.0 13.0 57 5.2 SSE 15 20 8 11 1017.9 1016.1 0.0
20/04:30am 22.3 20.0 13.1 56 5.4 SSE 17 26 9 14 1017.9 1016.1 0.0
20/04:00am 22.5 21.6 13.8 58 5.1 S 11 17 6 9 1018.1 1016.3 0.0
20/03:30am 22.5 21.6 13.8 58 5.1 SSE 11 15 6 8 1018.1 1016.3 0.0
20/03:00am 22.5 21.6 13.6 57 5.2 S 11 17 6 9 1018.1 1016.3 0.0
20/02:30am 22.6 20.9 13.7 57 5.2 SSE 15 19 8 10 1018.0 1016.2 0.0
20/02:00am 22.6 20.9 13.7 57 5.2 SSE 15 20 8 11 1018.1 1016.3 0.0
20/01:30am 23.0 21.6 13.5 55 5.6 S 13 20 7 11 1018.5 1016.8 0.0
20/01:00am 23.3 20.8 13.5 54 5.8 SSE 19 26 10 14 1018.6 1016.9 0.0
20/12:30am 23.3 20.8 13.5 54 5.8 S 19 28 10 15 1018.5 1016.8 0.0
20/12:00am 23.4 20.8 13.3 53 5.9 S 19 26 10 14 1018.5 1016.8 0.0
 
Date/Time
EST
Temp
°C
App
Temp
°C
Dew
Point
Rel
Hum
%
Delta-T
°C
Wind Press
QNH
hPa
Press
MSL
hPa
Rain
since 9 am
mm
Dir
 
Spd
km/h
Gust
km/h
Spd
kts
Gust
kts
19/11:30pm 23.8 20.9 13.9 54 5.9 S 22 30 12 16 1018.2 1016.5 0.0
19/11:00pm 23.9 21.7 14.3 55 5.7 S 19 24 10 13 1018.4 1016.7 0.0
19/10:30pm 24.3 21.5 14.4 54 5.9 S 22 32 12 17 1018.2 1016.5 0.0
19/10:00pm 24.6 21.6 14.7 54 6.0 SSE 24 35 13 19 1017.9 1016.1 0.0
19/09:30pm 24.6 22.3 14.7 54 6.0 S 20 30 11 16 1017.9 1016.1 0.0
19/09:00pm 25.0 21.5 14.5 52 6.3 S 26 35 14 19 1018.0 1016.2 0.0
19/08:30pm 26.9 25.6 15.9 51 6.8 SSE 17 22 9 12 1017.2 1015.4 0.0
19/08:00pm 26.9 25.9 16.5 53 6.5 SSE 17 26 9 14 1016.8 1015.0 0.0
19/07:30pm 27.2 26.9 16.5 52 6.7 SSE 13 20 7 11 1016.5 1014.8 0.0
19/07:00pm 27.0 27.5 16.6 53 6.5 E 9 13 5 7 1016.1 1014.4 0.0
19/06:30pm 26.7 26.9 17.7 57 5.7 NE 13 20 7 11 1015.7 1014.0 0.0
19/06:00pm 26.4 28.5 19.3 65 4.6 SSW 7 9 4 5 1015.4 1013.7 0.0
19/05:30pm 27.1 25.4 17.3 55 6.2 S 22 30 12 16 1015.1 1013.3 0.0
19/05:00pm 30.2 28.8 15.5 41 9.2 SE 17 24 9 13 1014.9 1013.1 0.0
19/04:30pm 31.0 29.8 15.0 38 9.9 SSE 15 20 8 11 1014.6 1012.8 0.0
19/04:00pm 31.6 29.9 14.7 36 10.5 ESE 17 24 9 13 1014.5 1012.7 0.0
19/03:30pm 31.1 30.4 14.3 36 10.3 SE 11 20 6 11 1014.6 1012.8 0.0
19/03:00pm 32.0 31.8 14.6 34 10.8 NE 9 17 5 9 1014.6 1012.8 0.0
19/02:30pm 31.3 31.0 14.4 35 10.4 ESE 9 20 5 11 1015.0 1013.2 0.0
19/02:00pm 31.8 31.3 14.9 36 10.5 ESE 11 20 6 11 1015.4 1013.7 0.0
19/01:30pm 30.8 31.3 15.6 39 9.5 ESE 7 13 4 7 1016.0 1014.3 0.0
19/01:00pm 30.0 30.2 15.7 42 8.9 SE 9 15 5 8 1016.6 1014.9 0.0
19/12:30pm 28.8 29.4 15.7 45 8.2 ESE 7 17 4 9 1017.5 1015.7 0.0
19/12:00pm 28.7 28.1 15.6 45 8.1 ESE 13 20 7 11 1018.2 1016.5 0.0
19/11:30am 28.9 29.2 16.1 46 8.0 SSE 9 17 5 9 1018.5 1016.8 0.0
19/11:00am 28.0 27.6 16.3 49 7.3 ESE 13 19 7 10 1019.0 1017.3 0.0
19/10:30am 27.0 25.2 15.4 49 7.1 SE 19 28 10 15 1019.4 1017.7 0.0
19/10:00am 26.2 24.1 15.3 51 6.7 SSE 20 26 11 14 1019.4 1017.7 0.0
19/09:30am 24.8 22.4 15.4 56 5.7 SSE 22 33 12 18 1019.5 1017.8 0.0
19/09:00am 24.7 22.2 15.1 55 5.8 SSE 22 30 12 16 1019.3 1017.6 0.6
19/08:30am 24.4 22.1 15.6 58 5.4 SSE 22 28 12 15 1019.0 1017.3 0.6
19/08:00am 24.4 22.0 15.3 57 5.5 SE 22 28 12 15 1018.5 1016.8 0.4
19/07:30am 24.3 22.6 15.8 59 5.2 SSE 19 26 10 14 1018.0 1016.2 0.4
19/07:00am 24.5 22.6 14.3 53 6.1 S 17 24 9 13 1017.5 1015.7 0.0
19/06:30am 24.5 22.1 14.3 53 6.1 SSE 20 26 11 14 1017.1 1015.3 0.0
19/06:00am 24.4 22.8 13.9 52 6.2 SSW 15 20 8 11 1016.5 1014.8 0.0
19/05:30am 24.9 23.3 13.8 50 6.6 S 15 19 8 10 1016.1 1014.4 0.0
19/05:00am 25.0 26.3 17.2 62 4.9 ESE 6 7 3 4 1015.7 1014.0 0.0
19/04:30am 24.7 25.8 17.2 63 4.7 S 7 9 4 5 1015.7 1014.0 0.0
19/04:00am 24.7 25.9 16.9 62 4.9 SE 6 11 3 6 1015.4 1013.7 0.0
19/03:30am 25.1 23.9 17.0 60 5.1 NE 19 24 10 13 1014.8 1013.0 0.0
19/03:00am 25.4 24.2 17.1 60 5.2 NE 19 24 10 13 1014.8 1013.0 0.0
19/02:30am 25.7 24.8 16.8 58 5.6 NE 17 22 9 12 1015.0 1013.2 0.0
19/02:00am 26.1 25.9 16.6 55 5.9 NE 13 17 7 9 1015.3 1013.5 0.0
19/01:30am 26.6 25.9 16.5 54 6.3 NE 15 19 8 10 1015.5 1013.8 0.0
19/01:00am 26.7 26.4 15.4 50 7.0 NE 11 17 6 9 1015.7 1014.0 0.0
19/12:30am 26.9 26.0 11.4 38 9.0 E 7 13 4 7 1016.1 1014.4 0.0
19/12:00am 26.5 25.0 10.6 37 9.0 E 9 11 5 6 1016.1 1014.4 0.0
 
Date/Time
EST
Temp
°C
App
Temp
°C
Dew
Point
Rel
Hum
%
Delta-T
°C
Wind Press
QNH
hPa
Press
MSL
hPa
Rain
since 9 am
mm
Dir
 
Spd
km/h
Gust
km/h
Spd
kts
Gust
kts
18/11:30pm 27.6 25.0 10.8 35 9.6 SE 15 19 8 10 1016.0 1014.3 0.0

Other Formats:

Comma delimited format used in spreadsheet applications
http://www.bom.gov.au/fwo/IDQ60801/IDQ60801.94343.axf

JavaScript Object Notation format (JSON) in row-major order
http://www.bom.gov.au/fwo/IDQ60801/IDQ60801.94343.json